Time;durP1;ratioP1;P1;durP2;ratioP2;P2;SDS_P1;SDS_P2;PMS_P1;PMS_P2;Temp;Humidity;BMP_temperature;BMP_pressure;BME280_temperature;BME280_humidity;BME280_pressure;Samples;Min_cycle;Max_cycle;Signal;HPM_P1;HPM_P2
2023/05/06 00:00:24;;;;;;;11.82;7.93;;;;;;;12.57;96.59;100116.72;5047563;28;20067;-31
2023/05/06 00:02:50;;;;;;;9.95;8.05;;;;;;;12.59;97.76;100130.69;5049463;28;20112;-31
2023/05/06 00:05:17;;;;;;;11.88;8.40;;;;;;;12.68;97.26;100126.63;5049201;28;20414;-32
2023/05/06 00:07:45;;;;;;;11.57;8.48;;;;;;;12.55;96.97;100127.66;5049322;28;20025;-32
2023/05/06 00:10:11;;;;;;;11.87;9.00;;;;;;;12.52;96.65;100129.97;5048776;28;20067;-31
2023/05/06 00:12:36;;;;;;;11.98;8.55;;;;;;;12.52;95.96;100129.97;5048733;28;20271;-32
2023/05/06 00:15:02;;;;;;;12.10;8.55;;;;;;;12.45;95.82;100124.72;5049325;28;20057;-31
2023/05/06 00:17:28;;;;;;;12.45;8.02;;;;;;;12.37;96.05;100123.19;5048979;28;20075;-31
2023/05/06 00:19:54;;;;;;;11.65;8.45;;;;;;;12.18;96.61;100113.63;5049022;28;20049;-32
2023/05/06 00:22:21;;;;;;;15.40;9.30;;;;;;;12.20;96.97;100127.59;5048768;28;20040;-32
2023/05/06 00:24:46;;;;;;;13.20;7.97;;;;;;;12.16;96.08;100123.72;5048829;28;20788;-32
2023/05/06 00:27:12;;;;;;;12.43;8.50;;;;;;;12.08;96.25;100108.00;5048824;28;20035;-32
2023/05/06 00:29:37;;;;;;;12.75;8.93;;;;;;;12.09;97.57;100120.31;5048716;28;20021;-31
2023/05/06 00:32:03;;;;;;;12.50;8.40;;;;;;;12.09;96.99;100114.97;5048752;28;20142;-31
2023/05/06 00:34:29;;;;;;;10.82;8.30;;;;;;;12.05;96.43;100118.13;5048705;28;20025;-33
2023/05/06 00:36:54;;;;;;;12.65;8.32;;;;;;;11.96;96.72;100118.66;5048644;28;20028;-31
2023/05/06 00:39:20;;;;;;;12.90;8.25;;;;;;;11.94;96.37;100116.19;5048694;28;20027;-32
2023/05/06 00:41:45;;;;;;;13.13;8.63;;;;;;;11.93;96.16;100119.94;5048797;28;20041;-31
2023/05/06 00:44:11;;;;;;;11.93;8.27;;;;;;;11.65;98.55;100115.94;5048361;28;20451;-32
2023/05/06 00:46:37;;;;;;;12.32;7.95;;;;;;;11.49;99.56;100094.38;5048531;28;20028;-33
2023/05/06 00:49:03;;;;;;;14.45;8.57;;;;;;;11.70;99.73;100114.44;5048278;28;20026;-31
2023/05/06 00:51:28;;;;;;;12.98;8.52;;;;;;;11.69;99.34;100115.47;5048658;28;20033;-32
2023/05/06 00:53:54;;;;;;;12.82;8.07;;;;;;;11.42;99.93;100105.94;5048018;28;20100;-32
2023/05/06 00:56:19;;;;;;;15.23;9.15;;;;;;;11.71;98.50;100105.38;5047973;28;20428;-31
2023/05/06 00:58:45;;;;;;;26.10;15.75;;;;;;;11.74;96.86;100103.06;5048213;28;20098;-31
2023/05/06 01:01:11;;;;;;;34.03;18.27;;;;;;;11.60;97.53;100109.63;5047035;28;20813;-32
2023/05/06 01:03:37;;;;;;;31.02;17.98;;;;;;;11.24;100.00;100106.75;5046978;28;20021;-32
2023/05/06 01:06:15;;;;;;;24.48;14.13;;;;;;;11.39;99.80;100108.25;5047006;28;20033;-32
2023/05/06 01:08:56;;;;;;;19.40;12.25;;;;;;;11.32;98.83;100094.97;5046414;28;20496;-32
2023/05/06 01:11:44;;;;;;;16.33;10.57;;;;;;;11.29;100.00;100106.06;5054422;28;20078;-31
2023/05/06 01:14:19;;;;;;;18.30;11.63;;;;;;;11.08;99.66;100083.31;5065401;28;20130;-34
2023/05/06 01:16:49;;;;;;;30.48;16.05;;;;;;;11.02;100.00;100086.88;5066832;28;20111;-32
2023/05/06 01:19:47;;;;;;;29.05;15.40;;;;;;;10.97;100.00;100086.69;5056850;28;20021;-31
2023/05/06 01:22:15;;;;;;;22.60;13.23;;;;;;;11.27;100.00;100100.16;5057154;28;20123;-31
2023/05/06 01:24:43;;;;;;;22.42;13.25;;;;;;;11.24;100.00;100093.41;5047421;28;20048;-32
2023/05/06 01:27:10;;;;;;;24.52;13.18;;;;;;;11.22;100.00;100095.47;5049966;28;20563;-32
2023/05/06 01:29:38;;;;;;;25.92;13.05;;;;;;;11.17;100.00;100087.31;5047718;28;20044;-31
2023/05/06 01:32:22;;;;;;;36.55;16.92;;;;;;;11.34;100.00;100092.06;5060306;28;20029;-31
2023/05/06 01:35:25;;;;;;;26.60;13.73;;;;;;;11.30;100.00;100090.88;5067223;28;20021;-33
2023/05/06 01:38:12;;;;;;;17.58;10.95;;;;;;;11.31;100.00;100087.97;4982848;28;20064;-31
2023/05/06 01:40:41;;;;;;;22.15;12.68;;;;;;;11.36;100.00;100089.97;4965822;28;20041;-31
2023/05/06 01:43:07;;;;;;;27.08;14.40;;;;;;;11.39;100.00;100081.53;5018872;28;20026;-31
2023/05/06 01:45:35;;;;;;;23.00;13.23;;;;;;;11.33;100.00;100090.44;5055938;28;20031;-33
2023/05/06 01:48:00;;;;;;;16.35;11.05;;;;;;;11.32;100.00;100083.44;5054881;28;20091;-32
2023/05/06 01:50:27;;;;;;;17.02;10.90;;;;;;;11.24;100.00;100077.38;5067068;28;20973;-33
2023/05/06 01:52:59;;;;;;;19.08;11.35;;;;;;;11.24;100.00;100069.38;5066998;28;20024;-31
2023/05/06 01:55:25;;;;;;;16.80;10.80;;;;;;;11.31;100.00;100084.50;5067217;28;20024;-32
2023/05/06 01:57:51;;;;;;;16.05;10.52;;;;;;;11.34;100.00;100089.38;5066771;28;20024;-34
2023/05/06 02:00:17;;;;;;;16.67;9.82;;;;;;;11.32;100.00;100072.78;5067094;28;20115;-31
2023/05/06 02:02:42;;;;;;;14.60;10.18;;;;;;;11.39;100.00;100078.88;5066723;28;20096;-32
2023/05/06 02:05:08;;;;;;;17.33;10.98;;;;;;;11.46;100.00;100079.59;5066764;28;20416;-32
2023/05/06 02:07:33;;;;;;;26.02;13.32;;;;;;;11.39;100.00;100074.34;5066867;28;20079;-32
2023/05/06 02:09:59;;;;;;;30.08;15.90;;;;;;;11.41;100.00;100082.94;5066608;28;20051;-32
2023/05/06 02:12:24;;;;;;;30.30;15.52;;;;;;;11.37;100.00;100078.28;5066652;28;20189;-31
2023/05/06 02:14:50;;;;;;;37.40;17.92;;;;;;;11.40;100.00;100075.97;5066610;28;20393;-31
2023/05/06 02:17:15;;;;;;;38.97;18.92;;;;;;;11.20;100.00;100070.06;5066941;28;20024;-32
2023/05/06 02:19:40;;;;;;;28.92;15.55;;;;;;;11.23;100.00;100061.59;5066329;28;20065;-32
2023/05/06 02:22:06;;;;;;;40.47;18.90;;;;;;;11.35;100.00;100077.69;5066418;28;20032;-32
2023/05/06 02:24:31;;;;;;;35.22;17.85;;;;;;;11.42;100.00;100086.41;5066439;28;20032;-31
2023/05/06 02:26:57;;;;;;;32.40;16.88;;;;;;;11.40;100.00;100083.16;5066806;28;20024;-31
2023/05/06 02:29:24;;;;;;;41.70;19.92;;;;;;;11.36;100.00;100087.31;5066459;28;20081;-32
2023/05/06 02:31:50;;;;;;;40.03;19.23;;;;;;;11.18;100.00;100094.28;5066298;28;20020;-31
2023/05/06 02:34:16;;;;;;;28.73;14.40;;;;;;;11.25;100.00;100083.53;5066302;28;20040;-31
2023/05/06 02:36:41;;;;;;;20.10;11.38;;;;;;;11.22;100.00;100084.81;5066185;28;20017;-34
2023/05/06 02:39:07;;;;;;;15.63;10.38;;;;;;;11.52;100.00;100096.56;5066428;28;20116;-31
2023/05/06 02:41:32;;;;;;;17.85;10.73;;;;;;;11.31;100.00;100077.31;5065853;28;20093;-31
2023/05/06 02:43:57;;;;;;;30.23;15.70;;;;;;;11.47;100.00;100091.91;5066066;28;20024;-32
2023/05/06 02:46:23;;;;;;;42.45;19.27;;;;;;;11.60;100.00;100091.72;5066109;28;20032;-31
2023/05/06 02:48:48;;;;;;;42.03;18.42;;;;;;;11.55;100.00;100091.59;5065938;28;20029;-32
2023/05/06 02:51:14;;;;;;;24.75;13.63;;;;;;;11.47;100.00;100078.56;5066067;28;20024;-31
2023/05/06 02:53:40;;;;;;;19.65;11.93;;;;;;;11.57;100.00;100097.53;5066168;28;20074;-32
2023/05/06 02:56:06;;;;;;;16.40;11.30;;;;;;;11.39;100.00;100090.34;5066220;28;20021;-32
2023/05/06 02:58:31;;;;;;;18.67;10.18;;;;;;;11.49;100.00;100103.19;5065630;28;20032;-32
2023/05/06 03:00:56;;;;;;;17.95;10.00;;;;;;;11.36;100.00;100098.00;5066014;28;20412;-30
2023/05/06 03:03:22;;;;;;;30.55;17.55;;;;;;;11.37;100.00;100088.94;5065693;28;20085;-32
2023/05/06 03:05:47;;;;;;;20.48;12.05;;;;;;;11.29;100.00;100083.91;5066060;28;20036;-31
2023/05/06 03:08:13;;;;;;;18.35;10.30;;;;;;;11.20;100.00;100100.22;5065695;28;20088;-32
2023/05/06 03:10:38;;;;;;;13.80;9.75;;;;;;;11.27;100.00;100089.47;5065608;28;20047;-32
2023/05/06 03:13:04;;;;;;;16.45;10.90;;;;;;;11.27;100.00;100092.13;5065727;28;20024;-31
2023/05/06 03:15:30;;;;;;;14.20;10.15;;;;;;;10.97;100.00;100092.03;5065847;28;20031;-32
2023/05/06 03:17:56;;;;;;;14.20;10.20;;;;;;;10.96;100.00;100101.09;5065828;28;20077;-32
2023/05/06 03:20:21;;;;;;;15.63;9.75;;;;;;;11.02;100.00;100101.03;5064363;28;20040;-32
2023/05/06 03:22:47;;;;;;;14.70;10.02;;;;;;;10.94;100.00;100095.16;5066017;28;20024;-33
2023/05/06 03:25:12;;;;;;;14.52;10.52;;;;;;;11.01;100.00;100099.41;5065339;28;20062;-31
2023/05/06 03:27:38;;;;;;;15.90;11.05;;;;;;;10.96;100.00;100111.78;5065627;28;20146;-31
2023/05/06 03:30:03;;;;;;;14.45;10.57;;;;;;;10.80;100.00;100102.47;5065260;28;20032;-32
2023/05/06 03:32:29;;;;;;;15.38;10.60;;;;;;;11.02;100.00;100105.56;5065972;28;20024;-32
2023/05/06 03:34:55;;;;;;;16.33;10.93;;;;;;;10.90;100.00;100115.31;5064930;28;20028;-32
2023/05/06 03:37:20;;;;;;;16.73;11.25;;;;;;;10.62;100.00;100116.56;5065610;28;20166;-31
2023/05/06 03:39:46;;;;;;;17.63;11.82;;;;;;;10.86;100.00;100123.75;5065496;28;20108;-32
2023/05/06 03:42:11;;;;;;;15.73;12.20;;;;;;;10.67;100.00;100127.41;5065259;28;20078;-33
2023/05/06 03:44:37;;;;;;;18.60;11.68;;;;;;;10.79;100.00;100128.34;5065570;28;20028;-32
2023/05/06 03:47:02;;;;;;;16.10;11.75;;;;;;;10.86;100.00;100129.09;5048101;28;20044;-31
2023/05/06 03:49:28;;;;;;;18.98;12.27;;;;;;;10.98;100.00;100139.06;5045945;28;20162;-31
2023/05/06 03:51:53;;;;;;;21.30;13.70;;;;;;;11.16;100.00;100133.75;5045018;28;20116;-31
2023/05/06 03:54:19;;;;;;;20.27;12.57;;;;;;;11.43;100.00;100142.28;5045413;28;20037;-32
2023/05/06 03:56:44;;;;;;;20.60;13.32;;;;;;;11.69;100.00;100142.19;5045211;28;20467;-32
2023/05/06 03:59:10;;;;;;;20.52;12.45;;;;;;;11.78;100.00;100132.84;5045563;28;20057;-32
2023/05/06 04:01:35;;;;;;;20.55;13.20;;;;;;;11.85;100.00;100142.41;5045123;28;20039;-33
2023/05/06 04:04:00;;;;;;;18.95;13.55;;;;;;;11.94;100.00;100134.91;5045036;28;20021;-32
2023/05/06 04:06:26;;;;;;;20.02;15.13;;;;;;;12.18;100.00;100140.38;5045415;28;20017;-31
2023/05/06 04:08:51;;;;;;;19.77;12.75;;;;;;;12.22;100.00;100144.22;5044610;28;20060;-32
2023/05/06 04:11:17;;;;;;;16.00;11.57;;;;;;;12.21;100.00;100147.91;5045311;28;20179;-32
2023/05/06 04:13:42;;;;;;;16.58;11.82;;;;;;;12.35;100.00;100141.31;5044918;28;20025;-31
2023/05/06 04:16:08;;;;;;;19.55;12.43;;;;;;;12.32;100.00;100146.31;5045536;28;20044;-32
2023/05/06 04:18:34;;;;;;;16.65;12.50;;;;;;;12.44;100.00;100148.00;5044984;28;20025;-31
2023/05/06 04:20:59;;;;;;;29.08;26.02;;;;;;;12.55;100.00;100145.56;5044943;28;20484;-32
2023/05/06 04:23:25;;;;;;;22.42;15.43;;;;;;;12.79;100.00;100147.22;5045209;28;20032;-34
2023/05/06 04:25:51;;;;;;;26.42;16.42;;;;;;;12.71;100.00;100139.56;5045024;28;20024;-31
2023/05/06 04:28:17;;;;;;;19.60;13.20;;;;;;;12.93;100.00;100147.00;5044866;28;20090;-31
2023/05/06 04:30:45;;;;;;;19.40;14.13;;;;;;;12.93;100.00;100150.47;5044525;28;20483;-32
2023/05/06 04:33:11;;;;;;;18.88;12.40;;;;;;;13.08;100.00;100133.97;5045219;28;20052;-31
2023/05/06 04:35:37;;;;;;;21.02;16.90;;;;;;;13.07;100.00;100138.50;5044729;28;20025;-32
2023/05/06 04:38:03;;;;;;;16.40;11.85;;;;;;;13.13;100.00;100142.09;5045005;28;20028;-31
2023/05/06 04:40:29;;;;;;;15.38;11.02;;;;;;;13.20;100.00;100137.47;5044546;28;20020;-31
2023/05/06 04:42:55;;;;;;;17.38;12.02;;;;;;;13.39;100.00;100150.75;5044915;28;20032;-32
2023/05/06 04:45:24;;;;;;;13.48;9.88;;;;;;;13.45;100.00;100168.56;5044668;28;20032;-31
2023/05/06 04:47:51;;;;;;;15.40;10.30;;;;;;;13.58;100.00;100165.59;5047256;28;20041;-31
2023/05/06 04:50:16;;;;;;;17.98;13.55;;;;;;;13.62;100.00;100169.44;5048619;28;20033;-33
2023/05/06 04:52:42;;;;;;;19.48;15.15;;;;;;;13.78;100.00;100159.84;5048136;28;20044;-32
2023/05/06 04:55:07;;;;;;;19.02;13.60;;;;;;;14.04;100.00;100179.94;5048132;28;20037;-31
2023/05/06 04:57:33;;;;;;;19.20;13.70;;;;;;;13.85;100.00;100165.06;5048018;28;20028;-32
2023/05/06 04:59:58;;;;;;;25.10;21.52;;;;;;;13.89;100.00;100160.84;5047921;28;20496;-31
2023/05/06 05:02:24;;;;;;;16.73;11.55;;;;;;;14.13;100.00;100174.19;5047830;28;20037;-31
2023/05/06 05:04:49;;;;;;;18.67;12.60;;;;;;;14.23;100.00;100177.88;5047967;28;20029;-33
2023/05/06 05:07:15;;;;;;;17.00;11.45;;;;;;;14.21;100.00;100174.63;5047755;28;20103;-31
2023/05/06 05:09:40;;;;;;;16.92;10.00;;;;;;;14.25;100.00;100169.59;5047181;28;20099;-32
2023/05/06 05:12:06;;;;;;;15.80;11.10;;;;;;;14.44;100.00;100168.34;5047944;28;20060;-32
2023/05/06 05:14:31;;;;;;;15.55;10.75;;;;;;;14.63;100.00;100168.94;5047587;28;20020;-32
2023/05/06 05:16:57;;;;;;;17.05;10.63;;;;;;;14.79;100.00;100164.66;5048059;28;20397;-33
2023/05/06 05:19:22;;;;;;;13.27;9.23;;;;;;;14.63;100.00;100170.84;5047299;28;20033;-31
2023/05/06 05:21:48;;;;;;;13.63;9.50;;;;;;;14.76;100.00;100178.56;5047845;28;20029;-33
2023/05/06 05:24:14;;;;;;;14.15;9.35;;;;;;;14.92;100.00;100158.13;5047523;28;20063;-32
2023/05/06 05:26:40;;;;;;;12.40;9.15;;;;;;;15.06;100.00;100174.72;5047680;28;20029;-32
2023/05/06 05:29:05;;;;;;;13.88;9.38;;;;;;;15.06;100.00;100172.03;5047514;28;20078;-31
2023/05/06 05:31:31;;;;;;;14.10;9.65;;;;;;;15.33;100.00;100171.34;5047472;28;20021;-31
2023/05/06 05:33:57;;;;;;;18.50;14.80;;;;;;;15.48;99.19;100182.28;5047403;28;20059;-32
2023/05/06 05:36:22;;;;;;;17.05;14.27;;;;;;;15.74;96.62;100177.28;5047554;28;20028;-31
2023/05/06 05:38:48;;;;;;;21.00;18.60;;;;;;;15.89;97.35;100192.78;5047317;28;20037;-32
2023/05/06 05:41:14;;;;;;;15.52;11.25;;;;;;;16.02;95.60;100190.53;5047157;28;20037;-31
2023/05/06 05:43:40;;;;;;;17.15;9.32;;;;;;;15.94;95.91;100190.97;5047342;28;20033;-34
2023/05/06 05:46:05;;;;;;;13.50;9.02;;;;;;;15.94;93.92;100166.78;5046329;28;20105;-32
2023/05/06 05:48:31;;;;;;;19.08;10.27;;;;;;;16.13;95.74;100190.66;5046987;28;20467;-31
2023/05/06 05:50:57;;;;;;;14.52;9.60;;;;;;;16.19;93.84;100192.31;5047243;28;20025;-31
2023/05/06 05:53:23;;;;;;;14.32;8.35;;;;;;;16.32;93.88;100186.53;5047089;28;20029;-31
2023/05/06 05:55:48;;;;;;;14.30;8.40;;;;;;;16.44;93.23;100189.06;5047272;28;20063;-31
2023/05/06 05:58:14;;;;;;;13.32;9.00;;;;;;;16.63;91.95;100186.81;5046597;28;20032;-31
2023/05/06 06:00:39;;;;;;;14.57;9.20;;;;;;;16.72;92.07;100190.69;5046906;28;20712;-31
2023/05/06 06:03:05;;;;;;;20.00;11.60;;;;;;;16.91;91.44;100188.44;5047058;28;20029;-31
2023/05/06 06:05:30;;;;;;;22.92;12.82;;;;;;;16.93;90.12;100178.22;5047218;28;20468;-31
2023/05/06 06:07:57;;;;;;;14.13;10.05;;;;;;;17.09;88.10;100192.59;5046613;28;20035;-31
2023/05/06 06:10:22;;;;;;;15.15;11.52;;;;;;;17.26;87.50;100195.97;5046608;28;20041;-34
2023/05/06 06:12:48;;;;;;;16.45;10.95;;;;;;;17.03;85.69;100196.34;5047152;28;20025;-32
2023/05/06 06:15:13;;;;;;;18.05;11.43;;;;;;;17.03;85.84;100190.94;5028694;28;20191;-32
2023/05/06 06:17:39;;;;;;;14.98;10.40;;;;;;;17.24;84.52;100192.72;5046572;28;20480;-31
2023/05/06 06:20:05;;;;;;;17.00;10.45;;;;;;;17.35;85.10;100196.28;5046592;28;20028;-31
2023/05/06 06:22:30;;;;;;;13.95;9.73;;;;;;;17.41;83.63;100192.53;5046577;28;20029;-31
2023/05/06 06:24:55;;;;;;;15.02;9.90;;;;;;;17.70;84.06;100194.03;5046219;28;20474;-31
2023/05/06 06:27:21;;;;;;;12.23;8.48;;;;;;;17.92;81.58;100189.31;5046527;28;20021;-31
2023/05/06 06:29:48;;;;;;;10.98;7.78;;;;;;;17.91;81.17;100192.25;5027988;28;20120;-31
2023/05/06 06:32:14;;;;;;;28.70;13.90;;;;;;;18.11;79.50;100186.94;5046331;28;20112;-31
2023/05/06 06:34:40;;;;;;;12.73;8.50;;;;;;;18.21;79.49;100189.66;5046272;28;20492;-31
2023/05/06 06:37:05;;;;;;;11.15;8.02;;;;;;;18.31;82.48;100185.34;5046365;28;20021;-33
2023/05/06 06:39:31;;;;;;;16.35;8.95;;;;;;;18.35;77.88;100195.34;5046519;28;20033;-31
2023/05/06 06:42:02;;;;;;;10.45;6.90;;;;;;;18.42;77.03;100195.09;5046059;28;20033;-31
2023/05/06 06:44:28;;;;;;;10.52;7.63;;;;;;;18.35;74.44;100189.97;5046178;28;20029;-31
2023/05/06 06:46:54;;;;;;;11.68;6.70;;;;;;;18.27;74.33;100172.38;5045870;28;20047;-31
2023/05/06 06:49:19;;;;;;;9.88;6.65;;;;;;;18.61;73.56;100193.50;5046314;28;20020;-31
2023/05/06 06:51:44;;;;;;;9.90;6.28;;;;;;;18.60;74.07;100185.66;5046117;28;20037;-31
2023/05/06 06:54:10;;;;;;;9.05;5.97;;;;;;;18.81;73.90;100186.50;5045574;28;20712;-31
2023/05/06 06:56:35;;;;;;;9.35;5.85;;;;;;;18.93;72.62;100188.94;5045879;28;20499;-32
2023/05/06 06:59:00;;;;;;;8.07;5.30;;;;;;;18.92;70.87;100173.78;5045647;28;20033;-30
2023/05/06 07:01:26;;;;;;;8.55;5.72;;;;;;;19.30;68.55;100194.00;5045751;28;20033;-32
2023/05/06 07:03:51;;;;;;;9.07;5.82;;;;;;;19.25;66.18;100186.72;5045702;28;20021;-31
2023/05/06 07:06:17;;;;;;;12.15;5.80;;;;;;;19.19;67.70;100185.13;5045895;28;20017;-31
2023/05/06 07:08:42;;;;;;;9.57;6.40;;;;;;;19.33;68.04;100184.53;5045046;28;20056;-31
2023/05/06 07:11:07;;;;;;;9.07;5.28;;;;;;;19.54;64.62;100186.13;5045171;28;20102;-31
2023/05/06 07:13:33;;;;;;;8.20;5.28;;;;;;;19.60;63.42;100176.88;5027443;28;20463;-31
2023/05/06 07:15:58;;;;;;;8.35;5.72;;;;;;;19.61;65.41;100167.69;5045921;28;20503;-31
2023/05/06 07:18:24;;;;;;;11.65;6.95;;;;;;;19.98;65.34;100174.59;5045790;28;20055;-31
2023/05/06 07:20:49;;;;;;;7.93;5.05;;;;;;;19.86;63.02;100179.53;5045292;28;20124;-30
2023/05/06 07:23:15;;;;;;;6.93;4.95;;;;;;;20.00;62.60;100180.53;5045576;28;20033;-32
2023/05/06 07:25:40;;;;;;;11.23;6.30;;;;;;;20.04;63.29;100176.19;5045408;28;20035;-31
2023/05/06 07:28:06;;;;;;;12.50;6.60;;;;;;;20.31;62.81;100172.25;5045706;28;20040;-31
2023/05/06 07:30:36;;;;;;;12.00;6.13;;;;;;;20.37;59.31;100176.53;5045513;28;20029;-31
2023/05/06 07:33:01;;;;;;;9.45;6.13;;;;;;;20.48;57.34;100178.06;5045592;28;20028;-30
2023/05/06 07:35:26;;;;;;;10.73;6.10;;;;;;;20.58;55.80;100179.94;5045650;28;20478;-31
2023/05/06 07:37:52;;;;;;;8.90;5.55;;;;;;;20.84;57.52;100182.41;5045316;28;20025;-32
2023/05/06 07:40:18;;;;;;;9.13;5.90;;;;;;;20.86;56.50;100181.06;5045564;28;20037;-31
2023/05/06 07:42:43;;;;;;;9.65;5.70;;;;;;;21.04;54.97;100186.84;5045044;28;20115;-32
2023/05/06 07:45:09;;;;;;;7.20;5.35;;;;;;;21.22;56.13;100194.25;5045425;28;20040;-31
2023/05/06 07:47:35;;;;;;;7.13;4.70;;;;;;;21.25;54.41;100199.13;5045102;28;20102;-31
2023/05/06 07:50:00;;;;;;;9.18;5.72;;;;;;;21.28;52.46;100186.88;5045460;28;20108;-32
2023/05/06 07:52:26;;;;;;;9.13;5.10;;;;;;;21.43;55.16;100188.66;5045231;28;20029;-32
2023/05/06 07:54:52;;;;;;;9.05;5.00;;;;;;;21.50;51.02;100189.13;5045283;28;20032;-32
2023/05/06 07:57:17;;;;;;;8.15;5.10;;;;;;;21.64;50.72;100190.03;5045106;28;20520;-32
2023/05/06 07:59:46;;;;;;;6.78;4.60;;;;;;;21.48;51.36;100166.91;5045317;28;20029;-31
2023/05/06 08:02:12;;;;;;;6.75;4.30;;;;;;;21.90;50.49;100181.56;5045388;28;20052;-31
2023/05/06 08:04:37;;;;;;;7.40;4.80;;;;;;;21.63;50.64;100193.03;5058901;28;20067;-31
2023/05/06 08:07:02;;;;;;;8.63;4.68;;;;;;;21.99;54.89;100182.53;5064903;28;20062;-31
2023/05/06 08:09:28;;;;;;;11.73;4.20;;;;;;;22.38;48.58;100191.56;5064801;28;20041;-32
2023/05/06 08:11:53;;;;;;;7.00;4.60;;;;;;;22.08;50.04;100175.34;5059782;28;20055;-33
2023/05/06 08:14:19;;;;;;;6.30;4.00;;;;;;;21.87;47.77;100187.59;5047980;28;20082;-32
2023/05/06 08:16:44;;;;;;;7.72;4.20;;;;;;;22.01;49.37;100184.97;5047305;28;20090;-31
2023/05/06 08:19:10;;;;;;;6.60;4.32;;;;;;;21.97;49.48;100187.47;5046251;28;20017;-32
2023/05/06 08:21:35;;;;;;;7.75;4.95;;;;;;;22.22;49.13;100183.56;5057124;28;20065;-32
2023/05/06 08:24:00;;;;;;;7.40;4.55;;;;;;;22.27;47.28;100197.13;5057882;28;20055;-32
2023/05/06 08:26:26;;;;;;;7.93;4.78;;;;;;;22.07;49.14;100195.47;5056388;28;20044;-34
2023/05/06 08:28:51;;;;;;;9.45;4.85;;;;;;;22.59;47.00;100192.84;5058239;28;20408;-33
2023/05/06 08:31:17;;;;;;;7.95;4.18;;;;;;;22.98;47.83;100188.13;5056651;28;20430;-34
2023/05/06 08:33:42;;;;;;;10.52;4.32;;;;;;;23.15;44.52;100193.00;5057334;28;20020;-34
2023/05/06 08:36:08;;;;;;;7.93;4.43;;;;;;;22.86;46.03;100196.75;5058266;28;20028;-35
2023/05/06 08:38:33;;;;;;;5.47;3.65;;;;;;;22.80;44.22;100187.91;5056936;28;20028;-34
2023/05/06 08:41:06;;;;;;;6.35;4.32;;;;;;;22.47;47.83;100173.47;5055939;28;20039;-36
2023/05/06 08:43:40;;;;;;;6.78;4.18;;;;;;;22.62;45.98;100184.09;5050533;28;20029;-34
2023/05/06 08:46:05;;;;;;;6.93;4.03;;;;;;;23.12;44.21;100194.44;5048521;28;20025;-33
2023/05/06 08:48:31;;;;;;;6.95;4.32;;;;;;;23.00;46.26;100180.47;5048061;28;20033;-32
2023/05/06 08:51:02;;;;;;;13.68;5.63;;;;;;;23.30;49.70;100178.34;5047894;28;20079;-31
2023/05/06 08:53:29;;;;;;;6.60;3.72;;;;;;;23.77;44.09;100181.78;5047828;28;20032;-32
2023/05/06 08:56:02;;;;;;;5.57;3.65;;;;;;;23.65;44.28;100166.72;5048241;28;20036;-32
2023/05/06 08:58:30;;;;;;;7.22;3.88;;;;;;;24.34;42.23;100170.47;5047532;28;20059;-31
2023/05/06 09:00:56;;;;;;;;;;;;;;;24.77;41.83;100180.91;5048743;28;20025;-32
2023/05/06 09:03:22;;;;;;;22.50;17.58;;;;;;;24.74;39.51;100184.22;5047640;28;19920;-31
2023/05/06 09:05:47;;;;;;;7.30;4.15;;;;;;;25.01;40.91;100181.38;5052475;28;20024;-30
2023/05/06 09:08:14;;;;;;;7.05;3.83;;;;;;;24.48;42.00;100163.03;5049079;28;20559;-31
2023/05/06 09:10:44;;;;;;;6.97;3.97;;;;;;;24.16;43.20;100169.50;5067479;28;20071;-31
2023/05/06 09:13:14;;;;;;;7.63;3.50;;;;;;;24.05;42.84;100172.47;5067606;28;20577;-32
2023/05/06 09:15:43;;;;;;;8.07;3.10;;;;;;;24.46;38.40;100166.06;5061639;28;20028;-31
2023/05/06 09:18:10;;;;;;;8.50;3.08;;;;;;;24.94;36.86;100170.06;5067348;28;20031;-32
2023/05/06 09:20:41;;;;;;;8.10;2.63;;;;;;;24.50;35.03;100160.00;5067462;28;20037;-31
2023/05/06 09:23:11;;;;;;;8.77;2.90;;;;;;;24.71;34.57;100141.25;5067349;28;20111;-31
2023/05/06 09:25:37;;;;;;;7.47;2.55;;;;;;;25.05;32.42;100167.91;5067633;28;20454;-31
2023/05/06 09:28:07;;;;;;;9.60;3.40;;;;;;;24.85;33.26;100164.56;5067177;28;20028;-33
2023/05/06 09:30:32;;;;;;;7.53;2.63;;;;;;;24.18;33.10;100159.09;5053813;28;20056;-31
2023/05/06 09:33:02;;;;;;;6.13;2.88;;;;;;;23.77;34.98;100163.53;5046451;28;20087;-33
2023/05/06 09:35:28;;;;;;;7.95;3.13;;;;;;;24.02;35.90;100154.00;5058085;28;20028;-31
2023/05/06 09:37:54;;;;;;;5.90;3.20;;;;;;;24.14;36.28;100153.47;5067215;28;20423;-31
2023/05/06 09:40:23;;;;;;;7.85;3.20;;;;;;;24.37;34.24;100151.56;5066878;28;20031;-31
2023/05/06 09:42:50;;;;;;;9.13;3.30;;;;;;;23.76;33.74;100152.91;5067187;28;20510;-32
2023/05/06 09:45:19;;;;;;;5.65;2.40;;;;;;;24.42;33.82;100156.09;5067229;28;20723;-31
2023/05/06 09:47:45;;;;;;;13.02;8.60;;;;;;;25.06;32.70;100134.03;5058406;28;20427;-31
2023/05/06 09:50:12;;;;;;;9.07;3.03;;;;;;;25.46;31.72;100139.53;5046911;28;20029;-31
2023/05/06 09:52:38;;;;;;;12.40;3.40;;;;;;;25.56;30.92;100139.22;5047166;28;20032;-32
2023/05/06 09:55:05;;;;;;;5.78;2.45;;;;;;;25.54;31.59;100132.44;5046912;28;20030;-32
2023/05/06 09:57:32;;;;;;;9.18;3.38;;;;;;;25.51;32.20;100149.47;5051807;28;20033;-33
2023/05/06 10:00:00;;;;;;;4.73;2.50;;;;;;;25.31;31.80;100145.41;5046841;28;20587;-31
2023/05/06 10:02:26;;;;;;;7.90;3.72;;;;;;;24.77;32.76;100135.34;5056268;28;20028;-32
2023/05/06 10:04:53;;;;;;;6.93;3.53;;;;;;;24.36;33.89;100154.59;5066681;28;20032;-32
2023/05/06 10:07:21;;;;;;;7.20;3.20;;;;;;;24.06;35.32;100146.00;5065726;28;20105;-31
2023/05/06 10:09:48;;;;;;;19.42;8.38;;;;;;;23.19;35.44;100136.91;5057368;28;20052;-32
2023/05/06 10:12:15;;;;;;;5.97;3.20;;;;;;;22.93;37.88;100155.59;5058708;28;20043;-34
2023/05/06 10:14:40;;;;;;;5.75;2.90;;;;;;;22.71;37.88;100139.94;5045986;28;20032;-33
2023/05/06 10:17:11;;;;;;;7.40;3.15;;;;;;;22.90;38.24;100137.94;5046398;28;20860;-36
2023/05/06 10:19:40;;;;;;;8.07;3.28;;;;;;;23.26;37.45;100146.28;5045436;28;20032;-33
2023/05/06 10:22:14;;;;;;;5.78;2.80;;;;;;;22.86;37.57;100137.75;5046388;28;20032;-34
2023/05/06 10:24:58;;;;;;;9.15;3.28;;;;;;;23.15;37.95;100149.50;5045993;28;20033;-34
2023/05/06 10:27:24;;;;;;;10.32;5.55;;;;;;;23.32;36.65;100141.56;5046089;28;20025;-34
2023/05/06 10:29:57;;;;;;;127.18;55.22;;;;;;;23.62;38.53;100129.25;5048173;28;20693;-34
2023/05/06 10:32:25;;;;;;;30.35;20.00;;;;;;;24.19;36.95;100141.63;5044315;28;20599;-34
2023/05/06 10:34:58;;;;;;;6.85;2.80;;;;;;;24.36;37.07;100125.44;5045650;28;20021;-33
2023/05/06 10:37:27;;;;;;;7.25;2.92;;;;;;;24.99;35.67;100134.50;5052463;28;20025;-34
2023/05/06 10:39:54;;;;;;;4.78;2.60;;;;;;;24.84;34.05;100130.22;5059241;28;20041;-32
2023/05/06 10:42:19;;;;;;;14.50;4.68;;;;;;;25.35;34.19;100133.53;5051457;28;20036;-32
2023/05/06 10:45:02;;;;;;;7.75;3.55;;;;;;;25.48;34.30;100134.53;5045434;28;20033;-32
2023/05/06 10:47:56;;;;;;;14.88;9.02;;;;;;;25.30;33.87;100150.06;5057815;28;20024;-32
2023/05/06 10:50:23;;;;;;;16.45;7.93;;;;;;;24.94;34.03;100144.72;5065254;28;20032;-32
2023/05/06 10:52:51;;;;;;;11.20;3.63;;;;;;;24.44;33.79;100135.59;5065239;28;20016;-34
2023/05/06 10:55:30;;;;;;;7.95;2.83;;;;;;;25.05;33.39;100141.41;5061289;28;20040;-32
2023/05/06 10:58:13;;;;;;;42.25;20.85;;;;;;;25.89;32.43;100133.34;5056834;28;20028;-32
2023/05/06 11:00:39;;;;;;;6.20;3.35;;;;;;;25.73;32.35;100130.25;5057192;28;20032;-32
2023/05/06 11:03:07;;;;;;;13.00;7.78;;;;;;;25.69;32.31;100144.88;5061851;28;20024;-33
2023/05/06 11:05:50;;;;;;;8.82;4.50;;;;;;;25.22;33.78;100148.91;5065461;28;20051;-32
2023/05/06 11:08:24;;;;;;;9.90;4.38;;;;;;;24.52;34.08;100134.06;5058051;28;20029;-33
2023/05/06 11:10:50;;;;;;;7.18;2.83;;;;;;;24.39;34.84;100143.88;5044932;28;20148;-32
2023/05/06 11:13:34;;;;;;;8.63;3.97;;;;;;;23.89;36.08;100141.22;5045331;28;20540;-32